Westwood, Indiana
Current Conditions -  °F | °C
As of 12:53 AM on Tuesday 27 Jan 2015 (Local Time) from KMIE Reporting Station
Overcast Overcast  
Wind Chill: 12°   Ceiling: 2000
Heat Index: 21°   Visibility: 10mi
Dew Point: 14°   Wind: 7mph
Humidity: 74%   Direction: 110°ESE
Pressure: 29.92"   Gusts: NA
Location:  39.9231°N, 85.3444°W
Report Text: KMIE 270553Z AUTO 11006KT 10SM BKN020 BKN050 OVC060 M06/M10 A2992 RMK AO2 SLP141 T10611100 11056 21078 58005
Loading
Personal Weather Stations






























Interactive Weather Map New forecast layout! Learn more

10-Day Weather Forecast

Advertisements
Track Severe Weather on mobile